sensor_id;sensor_type;location;lat;lon;timestamp;pressure;altitude;pressure_sealevel;temperature;humidity
50250;BME280;36133;42.522;27.456;2023-05-08T00:00:01;101651.97;;;13.76;58.32
50250;BME280;36133;42.522;27.456;2023-05-08T00:02:30;101615.38;;;12.97;60.11
50250;BME280;36133;42.522;27.456;2023-05-08T00:04:56;101395.72;;;12.38;58.62
50250;BME280;36133;42.522;27.456;2023-05-08T00:07:21;101510.56;;;12.89;59.09
50250;BME280;36133;42.522;27.456;2023-05-08T00:09:47;101636.78;;;13.67;59.21
50250;BME280;36133;42.522;27.456;2023-05-08T00:12:12;101686.81;;;13.50;60.54
50250;BME280;36133;42.522;27.456;2023-05-08T00:14:38;101664.91;;;13.37;60.90
50250;BME280;36133;42.522;27.456;2023-05-08T00:17:03;101638.25;;;13.17;60.93
50250;BME280;36133;42.522;27.456;2023-05-08T00:19:29;101673.88;;;13.14;61.52
50250;BME280;36133;42.522;27.456;2023-05-08T00:21:55;101718.53;;;13.27;62.24
50250;BME280;36133;42.522;27.456;2023-05-08T00:24:20;101644.13;;;13.44;60.40
50250;BME280;36133;42.522;27.456;2023-05-08T00:26:46;101627.06;;;13.73;59.06
50250;BME280;36133;42.522;27.456;2023-05-08T00:29:12;101656.94;;;13.88;59.77
50250;BME280;36133;42.522;27.456;2023-05-08T00:31:37;101569.31;;;13.49;59.55
50250;BME280;36133;42.522;27.456;2023-05-08T00:34:02;101598.25;;;13.72;58.54
50250;BME280;36133;42.522;27.456;2023-05-08T00:36:28;101712.78;;;14.49;58.79
50250;BME280;36133;42.522;27.456;2023-05-08T00:38:53;101659.56;;;14.55;58.12
50250;BME280;36133;42.522;27.456;2023-05-08T00:41:19;101625.66;;;13.62;60.41
50250;BME280;36133;42.522;27.456;2023-05-08T00:43:44;101655.16;;;14.24;59.54
50250;BME280;36133;42.522;27.456;2023-05-08T00:46:10;101397.84;;;12.95;58.62
50250;BME280;36133;42.522;27.456;2023-05-08T00:48:37;101677.66;;;14.84;58.32
50250;BME280;36133;42.522;27.456;2023-05-08T00:51:05;101695.06;;;14.89;58.55
50250;BME280;36133;42.522;27.456;2023-05-08T00:53:35;101628.84;;;14.25;59.00
50250;BME280;36133;42.522;27.456;2023-05-08T00:56:01;101432.22;;;12.95;59.22
50250;BME280;36133;42.522;27.456;2023-05-08T00:58:28;101626.13;;;14.25;59.31
50250;BME280;36133;42.522;27.456;2023-05-08T01:00:55;101230.06;;;11.59;59.39
50250;BME280;36133;42.522;27.456;2023-05-08T01:03:21;101707.84;;;14.74;58.79
50250;BME280;36133;42.522;27.456;2023-05-08T01:05:47;101689.03;;;14.73;59.37
50250;BME280;36133;42.522;27.456;2023-05-08T01:08:13;101689.44;;;14.55;59.61
50250;BME280;36133;42.522;27.456;2023-05-08T01:13:23;101670.03;;;14.28;58.68
50250;BME280;36133;42.522;27.456;2023-05-08T01:15:59;101600.66;;;13.14;59.91
50250;BME280;36133;42.522;27.456;2023-05-08T01:18:36;101711.81;;;13.98;60.16
50250;BME280;36133;42.522;27.456;2023-05-08T01:34:12;101707.56;;;12.58;62.34
50250;BME280;36133;42.522;27.456;2023-05-08T01:37:04;101665.31;;;12.01;62.22
50250;BME280;36133;42.522;27.456;2023-05-08T01:39:50;101640.03;;;11.54;63.47
50250;BME280;36133;42.522;27.456;2023-05-08T01:44:56;101716.28;;;11.82;65.05
50250;BME280;36133;42.522;27.456;2023-05-08T01:47:27;101712.19;;;11.86;65.29
50250;BME280;36133;42.522;27.456;2023-05-08T01:50:03;101718.81;;;11.91;64.79
50250;BME280;36133;42.522;27.456;2023-05-08T01:52:42;101728.44;;;11.86;65.72
50250;BME280;36133;42.522;27.456;2023-05-08T01:55:13;101630.25;;;11.12;66.43
50250;BME280;36133;42.522;27.456;2023-05-08T01:57:43;101632.78;;;11.22;65.68
50250;BME280;36133;42.522;27.456;2023-05-08T02:00:12;101561.84;;;10.79;64.97
50250;BME280;36133;42.522;27.456;2023-05-08T02:02:39;101702.91;;;11.64;65.15
50250;BME280;36133;42.522;27.456;2023-05-08T02:05:06;101701.03;;;11.24;65.92
50250;BME280;36133;42.522;27.456;2023-05-08T02:07:33;101724.56;;;11.39;65.53
50250;BME280;36133;42.522;27.456;2023-05-08T02:10:03;101645.13;;;11.08;64.21
50250;BME280;36133;42.522;27.456;2023-05-08T02:12:30;101718.78;;;11.67;63.23
50250;BME280;36133;42.522;27.456;2023-05-08T02:14:58;101712.38;;;11.68;63.13
50250;BME280;36133;42.522;27.456;2023-05-08T02:17:25;101678.06;;;11.36;62.38
50250;BME280;36133;42.522;27.456;2023-05-08T02:19:53;101479.41;;;10.18;62.14
50250;BME280;36133;42.522;27.456;2023-05-08T02:22:22;101443.16;;;10.28;61.94
50250;BME280;36133;42.522;27.456;2023-05-08T02:24:52;101136.88;;;8.11;62.38
50250;BME280;36133;42.522;27.456;2023-05-08T02:27:27;101725.00;;;12.16;62.13
50250;BME280;36133;42.522;27.456;2023-05-08T02:29:54;101194.88;;;8.74;62.13
50250;BME280;36133;42.522;27.456;2023-05-08T02:32:24;101702.56;;;11.51;62.89
50250;BME280;36133;42.522;27.456;2023-05-08T02:34:50;101143.09;;;8.04;63.32
50250;BME280;36133;42.522;27.456;2023-05-08T02:37:18;101430.63;;;9.95;62.79
50250;BME280;36133;42.522;27.456;2023-05-08T02:39:46;101503.56;;;10.36;62.78
50250;BME280;36133;42.522;27.456;2023-05-08T02:42:13;101541.56;;;10.50;62.69
50250;BME280;36133;42.522;27.456;2023-05-08T02:44:39;101643.44;;;10.91;63.05
50250;BME280;36133;42.522;27.456;2023-05-08T02:47:15;101318.56;;;9.26;61.80
50250;BME280;36133;42.522;27.456;2023-05-08T02:49:50;101352.66;;;9.51;61.96
50250;BME280;36133;42.522;27.456;2023-05-08T02:52:18;101532.44;;;10.76;62.42
50250;BME280;36133;42.522;27.456;2023-05-08T02:57:36;101617.56;;;11.53;62.39
50250;BME280;36133;42.522;27.456;2023-05-08T03:00:15;101251.72;;;9.21;62.44
50250;BME280;36133;42.522;27.456;2023-05-08T03:02:54;101688.63;;;12.11;62.52
50250;BME280;36133;42.522;27.456;2023-05-08T03:05:32;101667.72;;;11.72;64.13
50250;BME280;36133;42.522;27.456;2023-05-08T03:08:03;101491.25;;;10.33;64.68
50250;BME280;36133;42.522;27.456;2023-05-08T03:10:33;101546.81;;;10.60;65.42
50250;BME280;36133;42.522;27.456;2023-05-08T03:13:03;101691.56;;;11.68;64.85
50250;BME280;36133;42.522;27.456;2023-05-08T03:15:36;101663.22;;;12.20;62.61
50250;BME280;36133;42.522;27.456;2023-05-08T03:18:06;101702.69;;;12.53;62.95
50250;BME280;36133;42.522;27.456;2023-05-08T03:20:36;101669.41;;;11.89;62.80
50250;BME280;36133;42.522;27.456;2023-05-08T03:23:04;101590.72;;;11.11;63.52
50250;BME280;36133;42.522;27.456;2023-05-08T03:25:33;101714.06;;;11.93;63.61
50250;BME280;36133;42.522;27.456;2023-05-08T03:28:00;101672.66;;;11.52;63.77
50250;BME280;36133;42.522;27.456;2023-05-08T03:30:33;101715.06;;;11.92;62.84
50250;BME280;36133;42.522;27.456;2023-05-08T03:33:00;101719.78;;;11.98;61.63
50250;BME280;36133;42.522;27.456;2023-05-08T03:35:28;101723.50;;;12.14;61.47
50250;BME280;36133;42.522;27.456;2023-05-08T03:37:54;101722.53;;;12.46;60.19
50250;BME280;36133;42.522;27.456;2023-05-08T03:40:20;101712.69;;;12.53;59.85
50250;BME280;36133;42.522;27.456;2023-05-08T03:42:46;101732.72;;;12.36;59.72
50250;BME280;36133;42.522;27.456;2023-05-08T03:45:13;101309.22;;;9.95;59.94
50250;BME280;36133;42.522;27.456;2023-05-08T03:47:39;101676.94;;;12.10;60.30
50250;BME280;36133;42.522;27.456;2023-05-08T03:50:07;101730.81;;;12.44;60.92
50250;BME280;36133;42.522;27.456;2023-05-08T03:52:33;101656.41;;;11.77;61.84
50250;BME280;36133;42.522;27.456;2023-05-08T03:54:59;101691.91;;;11.82;62.80
50250;BME280;36133;42.522;27.456;2023-05-08T03:57:33;101720.91;;;12.28;61.85
50250;BME280;36133;42.522;27.456;2023-05-08T04:00:10;101721.47;;;12.08;63.51
50250;BME280;36133;42.522;27.456;2023-05-08T04:03:10;101721.63;;;12.06;63.93
50250;BME280;36133;42.522;27.456;2023-05-08T04:05:49;101689.97;;;12.15;63.36
50250;BME280;36133;42.522;27.456;2023-05-08T04:08:19;101675.84;;;12.36;62.25
50250;BME280;36133;42.522;27.456;2023-05-08T04:10:51;101590.75;;;11.91;62.08
50250;BME280;36133;42.522;27.456;2023-05-08T04:13:24;101718.81;;;12.78;62.35
50250;BME280;36133;42.522;27.456;2023-05-08T04:15:54;101718.22;;;12.99;62.47
50250;BME280;36133;42.522;27.456;2023-05-08T04:18:27;101501.91;;;11.63;62.61
50250;BME280;36133;42.522;27.456;2023-05-08T04:20:55;101724.25;;;13.32;62.35
50250;BME280;36133;42.522;27.456;2023-05-08T04:23:22;101532.50;;;12.57;61.23
50250;BME280;36133;42.522;27.456;2023-05-08T04:25:50;101739.34;;;13.34;62.71
50250;BME280;36133;42.522;27.456;2023-05-08T04:28:17;101701.78;;;13.46;62.42
50250;BME280;36133;42.522;27.456;2023-05-08T04:30:43;101729.91;;;13.68;62.25
50250;BME280;36133;42.522;27.456;2023-05-08T04:33:10;101547.34;;;12.84;60.98
50250;BME280;36133;42.522;27.456;2023-05-08T04:35:35;101719.31;;;13.96;60.57
50250;BME280;36133;42.522;27.456;2023-05-08T04:38:01;101599.09;;;13.87;59.12
50250;BME280;36133;42.522;27.456;2023-05-08T04:40:27;101727.19;;;14.35;59.80
50250;BME280;36133;42.522;27.456;2023-05-08T04:42:53;101590.25;;;14.15;58.74
50250;BME280;36133;42.522;27.456;2023-05-08T04:45:18;101706.56;;;15.70;56.30
50250;BME280;36133;42.522;27.456;2023-05-08T04:47:44;101645.03;;;16.10;54.76
50250;BME280;36133;42.522;27.456;2023-05-08T04:50:10;101664.28;;;17.18;51.47
50250;BME280;36133;42.522;27.456;2023-05-08T04:52:35;101711.59;;;16.70;54.26
50250;BME280;36133;42.522;27.456;2023-05-08T04:55:01;101705.22;;;18.17;51.12
50250;BME280;36133;42.522;27.456;2023-05-08T04:57:27;101708.41;;;18.85;49.36
50250;BME280;36133;42.522;27.456;2023-05-08T04:59:52;101704.72;;;19.68;47.42
50250;BME280;36133;42.522;27.456;2023-05-08T05:02:18;101714.00;;;19.03;48.91
50250;BME280;36133;42.522;27.456;2023-05-08T05:04:43;101619.44;;;20.37;45.90
50250;BME280;36133;42.522;27.456;2023-05-08T05:07:09;101545.66;;;19.81;45.08
50250;BME280;36133;42.522;27.456;2023-05-08T05:09:34;101487.88;;;19.46;45.21
50250;BME280;36133;42.522;27.456;2023-05-08T05:12:05;101515.06;;;20.32;44.00
50250;BME280;36133;42.522;27.456;2023-05-08T05:14:31;101703.94;;;23.18;40.45
50250;BME280;36133;42.522;27.456;2023-05-08T05:16:57;101713.00;;;22.03;42.12
50250;BME280;36133;42.522;27.456;2023-05-08T05:19:23;101553.59;;;19.89;45.26
50250;BME280;36133;42.522;27.456;2023-05-08T05:21:48;101698.38;;;22.61;41.35
50250;BME280;36133;42.522;27.456;2023-05-08T05:24:14;101588.84;;;22.06;40.98
50250;BME280;36133;42.522;27.456;2023-05-08T05:26:39;101604.00;;;21.97;40.97
50250;BME280;36133;42.522;27.456;2023-05-08T05:29:05;101702.53;;;22.63;40.72
50250;BME280;36133;42.522;27.456;2023-05-08T05:31:31;101516.13;;;21.26;41.41
50250;BME280;36133;42.522;27.456;2023-05-08T05:33:57;101432.13;;;22.22;38.52
50250;BME280;36133;42.522;27.456;2023-05-08T05:36:23;101701.25;;;24.23;37.67
50250;BME280;36133;42.522;27.456;2023-05-08T05:38:49;101644.69;;;24.43;36.92
50250;BME280;36133;42.522;27.456;2023-05-08T05:41:14;101486.47;;;23.28;38.08
50250;BME280;36133;42.522;27.456;2023-05-08T05:43:40;101696.78;;;23.50;38.94
50250;BME280;36133;42.522;27.456;2023-05-08T05:46:07;101691.94;;;23.74;38.52
50250;BME280;36133;42.522;27.456;2023-05-08T05:48:33;101711.13;;;22.15;41.05
50250;BME280;36133;42.522;27.456;2023-05-08T05:50:58;101690.03;;;23.91;38.00
50250;BME280;36133;42.522;27.456;2023-05-08T05:53:24;101683.81;;;25.37;35.24
50250;BME280;36133;42.522;27.456;2023-05-08T05:55:50;101689.19;;;26.96;33.29
50250;BME280;36133;42.522;27.456;2023-05-08T05:58:15;101697.63;;;25.32;35.23
50250;BME280;36133;42.522;27.456;2023-05-08T06:00:41;101694.72;;;26.81;33.29
50250;BME280;36133;42.522;27.456;2023-05-08T06:03:07;101642.28;;;28.32;30.86
50250;BME280;36133;42.522;27.456;2023-05-08T06:05:35;101673.00;;;29.44;30.15
50250;BME280;36133;42.522;27.456;2023-05-08T06:08:01;101681.66;;;30.30;28.04
50250;BME280;36133;42.522;27.456;2023-05-08T06:10:27;101702.16;;;29.86;28.69
50250;BME280;36133;42.522;27.456;2023-05-08T06:12:52;101709.00;;;27.51;32.28
50250;BME280;36133;42.522;27.456;2023-05-08T06:15:19;101634.06;;;25.32;34.56
50250;BME280;36133;42.522;27.456;2023-05-08T06:17:45;101712.88;;;24.91;35.42
50250;BME280;36133;42.522;27.456;2023-05-08T06:20:11;101685.34;;;23.92;38.09
50250;BME280;36133;42.522;27.456;2023-05-08T06:22:37;101545.00;;;25.30;34.12
50250;BME280;36133;42.522;27.456;2023-05-08T06:25:05;101699.94;;;26.20;33.37
50250;BME280;36133;42.522;27.456;2023-05-08T06:27:32;101703.56;;;26.83;33.11
50250;BME280;36133;42.522;27.456;2023-05-08T06:30:03;101705.50;;;26.82;32.63
50250;BME280;36133;42.522;27.456;2023-05-08T06:32:32;101473.03;;;24.46;32.89
50250;BME280;36133;42.522;27.456;2023-05-08T06:35:00;101496.47;;;23.34;35.19
50250;BME280;36133;42.522;27.456;2023-05-08T06:37:29;101523.91;;;20.64;39.30
50250;BME280;36133;42.522;27.456;2023-05-08T06:39:55;101528.88;;;22.48;36.87
50250;BME280;36133;42.522;27.456;2023-05-08T06:42:23;101725.34;;;22.23;37.87
50250;BME280;36133;42.522;27.456;2023-05-08T06:44:49;101242.06;;;20.60;36.50
50250;BME280;36133;42.522;27.456;2023-05-08T06:47:18;101525.88;;;22.49;36.56
50250;BME280;36133;42.522;27.456;2023-05-08T06:49:46;101692.13;;;23.67;37.02
50250;BME280;36133;42.522;27.456;2023-05-08T06:52:11;101684.00;;;21.95;40.24
50250;BME280;36133;42.522;27.456;2023-05-08T06:54:40;101622.91;;;21.58;40.14
50250;BME280;36133;42.522;27.456;2023-05-08T06:57:06;101534.03;;;21.52;38.91
50250;BME280;36133;42.522;27.456;2023-05-08T06:59:33;101318.25;;;20.46;38.31
50250;BME280;36133;42.522;27.456;2023-05-08T07:01:58;101267.63;;;19.95;38.99
50250;BME280;36133;42.522;27.456;2023-05-08T07:04:24;101135.56;;;18.50;39.50
50250;BME280;36133;42.522;27.456;2023-05-08T07:06:50;101663.97;;;22.75;38.41
50250;BME280;36133;42.522;27.456;2023-05-08T07:09:16;101703.69;;;23.19;37.76
50250;BME280;36133;42.522;27.456;2023-05-08T07:11:41;101320.97;;;20.93;36.23
50250;BME280;36133;42.522;27.456;2023-05-08T07:14:08;101168.38;;;20.16;36.05
50250;BME280;36133;42.522;27.456;2023-05-08T07:16:34;101143.81;;;21.30;34.05
50250;BME280;36133;42.522;27.456;2023-05-08T07:19:00;101240.44;;;21.27;34.91
50250;BME280;36133;42.522;27.456;2023-05-08T07:21:26;101708.94;;;24.21;35.21
50250;BME280;36133;42.522;27.456;2023-05-08T07:23:52;101577.59;;;25.23;32.20
50250;BME280;36133;42.522;27.456;2023-05-08T07:26:18;101531.47;;;27.56;29.52
50250;BME280;36133;42.522;27.456;2023-05-08T07:28:44;101251.06;;;26.03;28.84
50250;BME280;36133;42.522;27.456;2023-05-08T07:31:10;101322.44;;;26.26;28.99
50250;BME280;36133;42.522;27.456;2023-05-08T07:33:36;101553.94;;;27.59;27.98
50250;BME280;36133;42.522;27.456;2023-05-08T07:36:02;101250.66;;;26.75;27.07
50250;BME280;36133;42.522;27.456;2023-05-08T07:38:30;101534.66;;;29.55;26.04
50250;BME280;36133;42.522;27.456;2023-05-08T07:40:56;101280.63;;;29.17;24.42
50250;BME280;36133;42.522;27.456;2023-05-08T07:43:22;101525.69;;;30.30;24.68
50250;BME280;36133;42.522;27.456;2023-05-08T07:45:50;101695.97;;;31.60;24.59
50250;BME280;36133;42.522;27.456;2023-05-08T07:48:16;101244.22;;;28.47;24.69
50250;BME280;36133;42.522;27.456;2023-05-08T07:50:45;101531.78;;;27.54;28.87
50250;BME280;36133;42.522;27.456;2023-05-08T07:53:11;101192.41;;;25.24;29.04
50250;BME280;36133;42.522;27.456;2023-05-08T07:55:37;101490.81;;;27.21;28.56
50250;BME280;36133;42.522;27.456;2023-05-08T07:58:02;101499.88;;;29.29;26.54
50250;BME280;36133;42.522;27.456;2023-05-08T08:00:28;101648.66;;;30.18;26.91
50250;BME280;36133;42.522;27.456;2023-05-08T08:02:54;101351.47;;;25.78;30.26
50250;BME280;36133;42.522;27.456;2023-05-08T08:05:20;101368.09;;;28.09;27.17
50250;BME280;36133;42.522;27.456;2023-05-08T08:07:46;101509.09;;;31.96;24.27
50250;BME280;36133;42.522;27.456;2023-05-08T08:10:12;101205.81;;;26.73;28.14
50250;BME280;36133;42.522;27.456;2023-05-08T08:12:40;101686.22;;;27.59;30.70
50250;BME280;36133;42.522;27.456;2023-05-08T08:15:06;101424.03;;;25.37;32.51
50250;BME280;36133;42.522;27.456;2023-05-08T08:17:32;101199.63;;;26.02;29.33
50250;BME280;36133;42.522;27.456;2023-05-08T08:19:58;101444.19;;;25.33;31.72
50250;BME280;36133;42.522;27.456;2023-05-08T08:22:24;101393.88;;;26.29;30.63
50250;BME280;36133;42.522;27.456;2023-05-08T08:24:50;101589.47;;;26.08;32.89
50250;BME280;36133;42.522;27.456;2023-05-08T08:27:16;101657.66;;;27.07;32.39
50250;BME280;36133;42.522;27.456;2023-05-08T08:29:44;101473.31;;;26.34;32.49
50250;BME280;36133;42.522;27.456;2023-05-08T08:32:10;101677.63;;;25.89;34.67
50250;BME280;36133;42.522;27.456;2023-05-08T08:34:35;101481.16;;;25.27;33.38
50250;BME280;36133;42.522;27.456;2023-05-08T08:37:04;101211.19;;;25.27;31.20
50250;BME280;36133;42.522;27.456;2023-05-08T08:39:33;101423.25;;;26.55;31.96
50250;BME280;36133;42.522;27.456;2023-05-08T08:41:59;101487.13;;;27.45;31.39
50250;BME280;36133;42.522;27.456;2023-05-08T08:44:25;101491.94;;;27.14;32.44
50250;BME280;36133;42.522;27.456;2023-05-08T08:46:52;101337.28;;;25.54;33.65
50250;BME280;36133;42.522;27.456;2023-05-08T08:49:23;101162.72;;;24.26;34.39
50250;BME280;36133;42.522;27.456;2023-05-08T08:51:57;101483.41;;;27.91;31.93
50250;BME280;36133;42.522;27.456;2023-05-08T08:54:23;101684.25;;;28.05;32.75
50250;BME280;36133;42.522;27.456;2023-05-08T08:56:54;101646.28;;;29.49;32.06
50250;BME280;36133;42.522;27.456;2023-05-08T08:59:23;101254.69;;;27.97;31.37
50250;BME280;36133;42.522;27.456;2023-05-08T09:01:55;101212.50;;;28.00;30.99
50250;BME280;36133;42.522;27.456;2023-05-08T09:04:23;101490.72;;;28.65;32.02
50250;BME280;36133;42.522;27.456;2023-05-08T09:06:52;101170.88;;;25.87;32.96
50250;BME280;36133;42.522;27.456;2023-05-08T09:09:18;101211.25;;;25.88;33.90
50250;BME280;36133;42.522;27.456;2023-05-08T09:11:45;101440.66;;;24.68;38.20
50250;BME280;36133;42.522;27.456;2023-05-08T09:14:10;101498.47;;;27.49;33.98
50250;BME280;36133;42.522;27.456;2023-05-08T09:16:36;101464.78;;;26.76;34.64
50250;BME280;36133;42.522;27.456;2023-05-08T09:19:02;101362.25;;;25.74;34.80
50250;BME280;36133;42.522;27.456;2023-05-08T09:21:28;101314.97;;;25.76;34.74
50250;BME280;36133;42.522;27.456;2023-05-08T09:24:01;101321.41;;;24.71;36.59
50250;BME280;36133;42.522;27.456;2023-05-08T09:26:35;101673.88;;;25.68;38.57
50250;BME280;36133;42.522;27.456;2023-05-08T09:29:18;101651.38;;;28.48;34.28
50250;BME280;36133;42.522;27.456;2023-05-08T09:31:45;101600.78;;;29.00;32.57
50250;BME280;36133;42.522;27.456;2023-05-08T09:36:54;101540.97;;;27.29;35.10
50250;BME280;36133;42.522;27.456;2023-05-08T09:39:24;101632.91;;;26.70;37.15
50250;BME280;36133;42.522;27.456;2023-05-08T09:44:22;101634.59;;;26.09;38.65
50250;BME280;36133;42.522;27.456;2023-05-08T09:46:48;101620.75;;;26.14;37.86
50250;BME280;36133;42.522;27.456;2023-05-08T09:49:18;101388.75;;;24.65;38.35
50250;BME280;36133;42.522;27.456;2023-05-08T09:52:01;101635.94;;;25.00;40.41
50250;BME280;36133;42.522;27.456;2023-05-08T09:54:30;101637.75;;;25.85;38.97
50250;BME280;36133;42.522;27.456;2023-05-08T09:56:56;101578.94;;;24.94;40.26
50250;BME280;36133;42.522;27.456;2023-05-08T09:59:26;101610.94;;;25.49;38.92
50250;BME280;36133;42.522;27.456;2023-05-08T10:01:54;101631.06;;;27.52;36.70
50250;BME280;36133;42.522;27.456;2023-05-08T10:04:32;101631.00;;;26.91;37.17
50250;BME280;36133;42.522;27.456;2023-05-08T10:06:59;101605.75;;;26.72;37.36
50250;BME280;36133;42.522;27.456;2023-05-08T10:09:25;101591.69;;;27.45;35.55
50250;BME280;36133;42.522;27.456;2023-05-08T10:11:51;101613.56;;;29.93;32.39
50250;BME280;36133;42.522;27.456;2023-05-08T10:14:21;101350.69;;;29.99;29.01
50250;BME280;36133;42.522;27.456;2023-05-08T10:16:48;101453.09;;;27.99;32.76
50250;BME280;36133;42.522;27.456;2023-05-08T10:19:23;101552.28;;;26.56;36.29
50250;BME280;36133;42.522;27.456;2023-05-08T10:21:51;101199.25;;;24.39;35.62
50250;BME280;36133;42.522;27.456;2023-05-08T10:24:32;101083.22;;;23.66;36.55
50250;BME280;36133;42.522;27.456;2023-05-08T10:27:19;101283.91;;;24.33;38.09
50250;BME280;36133;42.522;27.456;2023-05-08T10:29:53;101612.59;;;29.16;33.69
50250;BME280;36133;42.522;27.456;2023-05-08T10:32:42;101420.75;;;28.58;32.73
50250;BME280;36133;42.522;27.456;2023-05-08T10:35:09;101107.84;;;25.74;33.73
50250;BME280;36133;42.522;27.456;2023-05-08T10:37:37;101096.63;;;22.93;37.54
50250;BME280;36133;42.522;27.456;2023-05-08T10:40:04;101339.84;;;25.76;36.30
50250;BME280;36133;42.522;27.456;2023-05-08T10:42:33;101295.16;;;27.14;33.08
50250;BME280;36133;42.522;27.456;2023-05-08T10:45:05;101092.09;;;25.29;33.42
50250;BME280;36133;42.522;27.456;2023-05-08T10:50:43;101618.28;;;27.71;35.62
50250;BME280;36133;42.522;27.456;2023-05-08T10:53:19;101362.00;;;26.93;34.34
50250;BME280;36133;42.522;27.456;2023-05-08T10:55:50;101444.59;;;25.62;36.47
50250;BME280;36133;42.522;27.456;2023-05-08T11:03:17;101067.72;;;22.91;37.08
50250;BME280;36133;42.522;27.456;2023-05-08T11:05:48;101552.00;;;26.43;37.00
50250;BME280;36133;42.522;27.456;2023-05-08T11:14:12;101141.31;;;24.44;35.63
50250;BME280;36133;42.522;27.456;2023-05-08T11:19:26;101166.47;;;25.76;34.40
50250;BME280;36133;42.522;27.456;2023-05-08T11:22:15;101595.66;;;28.24;34.11
50250;BME280;36133;42.522;27.456;2023-05-08T11:27:37;101597.19;;;26.84;36.35
50250;BME280;36133;42.522;27.456;2023-05-08T11:36:00;101113.63;;;23.81;36.54
50250;BME280;36133;42.522;27.456;2023-05-08T11:38:37;101375.81;;;25.76;36.14
50250;BME280;36133;42.522;27.456;2023-05-08T11:41:22;101600.00;;;27.65;35.58
50250;BME280;36133;42.522;27.456;2023-05-08T11:46:19;101478.03;;;27.30;35.07
50250;BME280;36133;42.522;27.456;2023-05-08T11:48:48;101085.13;;;23.65;37.30
50250;BME280;36133;42.522;27.456;2023-05-08T11:51:16;101515.75;;;26.90;35.97
50250;BME280;36133;42.522;27.456;2023-05-08T11:53:44;101569.53;;;28.30;34.92
50250;BME280;36133;42.522;27.456;2023-05-08T11:56:11;101499.53;;;27.79;35.29
50250;BME280;36133;42.522;27.456;2023-05-08T11:58:40;101525.25;;;27.94;35.63
50250;BME280;36133;42.522;27.456;2023-05-08T12:01:08;101572.75;;;26.50;37.91
50250;BME280;36133;42.522;27.456;2023-05-08T12:03:33;101508.13;;;25.52;39.56
50250;BME280;36133;42.522;27.456;2023-05-08T12:06:02;101509.50;;;26.12;38.07
50250;BME280;36133;42.522;27.456;2023-05-08T12:08:28;101558.78;;;25.67;39.89
50250;BME280;36133;42.522;27.456;2023-05-08T12:10:55;101416.19;;;23.91;41.26
50250;BME280;36133;42.522;27.456;2023-05-08T12:13:27;101210.06;;;22.73;41.02
50250;BME280;36133;42.522;27.456;2023-05-08T12:15:58;101245.41;;;22.81;41.59
50250;BME280;36133;42.522;27.456;2023-05-08T12:18:26;101365.88;;;23.35;41.63
50250;BME280;36133;42.522;27.456;2023-05-08T12:23:22;101332.78;;;20.70;46.74
50250;BME280;36133;42.522;27.456;2023-05-08T12:25:59;101420.00;;;20.91;47.78
50250;BME280;36133;42.522;27.456;2023-05-08T12:28:25;100980.88;;;17.39;49.94
50250;BME280;36133;42.522;27.456;2023-05-08T12:30:52;101145.88;;;19.14;48.05
50250;BME280;36133;42.522;27.456;2023-05-08T12:33:24;101101.06;;;19.97;46.02
50250;BME280;36133;42.522;27.456;2023-05-08T12:35:56;101260.56;;;21.45;44.52
50250;BME280;36133;42.522;27.456;2023-05-08T12:38:31;101571.81;;;23.78;43.72
50250;BME280;36133;42.522;27.456;2023-05-08T12:41:00;101542.69;;;24.09;42.70
50250;BME280;36133;42.522;27.456;2023-05-08T12:43:35;101411.16;;;24.37;40.47
50250;BME280;36133;42.522;27.456;2023-05-08T12:46:03;101423.88;;;24.43;40.34
50250;BME280;36133;42.522;27.456;2023-05-08T12:48:29;101185.84;;;24.68;37.07
50250;BME280;36133;42.522;27.456;2023-05-08T12:51:09;101076.25;;;23.58;37.48
50250;BME280;36133;42.522;27.456;2023-05-08T12:53:36;101429.03;;;26.39;36.63
50250;BME280;36133;42.522;27.456;2023-05-08T12:56:03;101123.28;;;25.04;36.31
50250;BME280;36133;42.522;27.456;2023-05-08T12:58:33;101555.97;;;27.03;36.70
50250;BME280;36133;42.522;27.456;2023-05-08T13:01:04;101145.44;;;24.36;36.78
50250;BME280;36133;42.522;27.456;2023-05-08T13:03:30;101112.47;;;22.59;39.56
50250;BME280;36133;42.522;27.456;2023-05-08T13:06:00;101100.94;;;22.40;40.24
50250;BME280;36133;42.522;27.456;2023-05-08T13:08:30;101402.44;;;23.69;40.66
50250;BME280;36133;42.522;27.456;2023-05-08T13:11:00;101235.63;;;22.91;40.01
50250;BME280;36133;42.522;27.456;2023-05-08T13:13:29;101571.03;;;23.10;43.76
50250;BME280;36133;42.522;27.456;2023-05-08T13:15:55;101536.09;;;23.66;42.73
50250;BME280;36133;42.522;27.456;2023-05-08T13:18:24;101261.69;;;22.44;42.14
50250;BME280;36133;42.522;27.456;2023-05-08T13:20:49;101388.72;;;22.92;42.55
50250;BME280;36133;42.522;27.456;2023-05-08T13:23:15;101413.63;;;24.70;39.02
50250;BME280;36133;42.522;27.456;2023-05-08T13:25:41;101515.22;;;23.15;43.04
50250;BME280;36133;42.522;27.456;2023-05-08T13:28:07;101110.50;;;19.89;44.24
50250;BME280;36133;42.522;27.456;2023-05-08T13:30:36;101576.84;;;23.48;43.93
50250;BME280;36133;42.522;27.456;2023-05-08T13:33:04;101544.97;;;22.85;44.67
50250;BME280;36133;42.522;27.456;2023-05-08T13:35:31;101360.81;;;21.59;44.97
50250;BME280;36133;42.522;27.456;2023-05-08T13:37:57;101136.50;;;21.53;42.07
50250;BME280;36133;42.522;27.456;2023-05-08T13:40:24;101120.22;;;20.20;44.08
50250;BME280;36133;42.522;27.456;2023-05-08T13:42:50;101596.16;;;22.69;44.96